Time;durP1;ratioP1;P1;durP2;ratioP2;P2;SDS_P1;SDS_P2;PMS_P1;PMS_P2;Temp;Humidity;BMP_temperature;BMP_pressure;BME280_temperature;BME280_humidity;BME280_pressure;Samples;Min_cycle;Max_cycle;Signal;HPM_P1;HPM_P2
2024/02/06 00:01:26;;;;;;;1999.90;999.90;;;;;;;;;;5133990;27;20388;-84
2024/02/06 00:03:53;;;;;;;1999.90;999.90;;;;;;;;;;5138147;27;20417;-84
2024/02/06 00:06:20;;;;;;;1999.90;999.90;;;;;;;;;;5136301;27;20082;-85
2024/02/06 00:08:49;;;;;;;1999.90;999.90;;;;;;;;;;5137517;27;20044;-84
2024/02/06 00:11:16;;;;;;;1999.90;999.90;;;;;;;;;;5135333;27;20053;-84
2024/02/06 00:13:43;;;;;;;1999.90;999.90;;;;;;;;;;5138019;27;20061;-84
2024/02/06 00:16:12;;;;;;;1999.90;999.90;;;;;;;;;;5119823;27;20055;-84
2024/02/06 00:18:39;;;;;;;1999.90;999.90;;;;;;;;;;5134143;27;20050;-84
2024/02/06 00:21:07;;;;;;;1999.90;999.90;;;;;;;;;;5116081;27;20504;-84
2024/02/06 00:23:34;;;;;;;1999.90;999.90;;;;;;;;;;5135203;27;20053;-84
2024/02/06 00:26:03;;;;;;;1999.90;999.90;;;;;;;;;;5138039;27;20054;-84
2024/02/06 00:28:31;;;;;;;1999.90;999.90;;;;;;;;;;5130262;27;20055;-83
2024/02/06 00:30:57;;;;;;;1999.90;999.90;;;;;;;;;;5136549;27;20047;-84
2024/02/06 00:33:24;;;;;;;1999.90;999.90;;;;;;;;;;5137354;27;20047;-85
2024/02/06 00:35:51;;;;;;;1999.90;999.90;;;;;;;;;;5137225;27;20058;-84
2024/02/06 00:38:18;;;;;;;1999.90;999.90;;;;;;;;;;5122591;27;20054;-84
2024/02/06 00:40:45;;;;;;;1999.90;999.90;;;;;;;;;;5131617;27;20048;-85
2024/02/06 00:43:13;;;;;;;1999.90;999.90;;;;;;;;;;5137331;27;20053;-83
2024/02/06 00:45:40;;;;;;;1999.90;999.90;;;;;;;;;;5118287;27;20606;-84
2024/02/06 00:48:08;;;;;;;1999.90;999.90;;;;;;;;;;5135024;27;20043;-85
2024/02/06 00:50:36;;;;;;;1999.90;999.90;;;;;;;;;;5133961;27;20700;-84
2024/02/06 00:53:03;;;;;;;1999.90;999.90;;;;;;;;;;5134381;27;20047;-84
2024/02/06 00:55:30;;;;;;;1999.90;999.90;;;;;;;;;;5132471;27;20051;-85
2024/02/06 00:57:57;;;;;;;1999.90;999.90;;;;;;;;;;5119694;27;20059;-82
2024/02/06 01:00:25;;;;;;;1999.90;999.90;;;;;;;;;;5136931;27;20050;-84
2024/02/06 01:02:52;;;;;;;1999.90;999.90;;;;;;;;;;5138623;27;20054;-84
2024/02/06 01:05:19;;;;;;;1999.90;999.90;;;;;;;;;;5134984;27;20141;-85
2024/02/06 01:07:46;;;;;;;1999.90;999.90;;;;;;;;;;5136912;27;20051;-85
2024/02/06 01:10:13;;;;;;;1999.90;999.90;;;;;;;;;;5141018;27;20043;-84
2024/02/06 01:12:40;;;;;;;1999.90;999.90;;;;;;;;;;5135316;27;20050;-84
2024/02/06 01:15:07;;;;;;;1999.90;999.90;;;;;;;;;;5136370;27;20046;-83
2024/02/06 01:17:35;;;;;;;1999.90;999.90;;;;;;;;;;5120777;27;20485;-85
2024/02/06 01:20:02;;;;;;;1999.90;999.90;;;;;;;;;;5135597;27;20062;-84
2024/02/06 01:22:30;;;;;;;1999.90;999.90;;;;;;;;;;5138892;27;20082;-84
2024/02/06 01:24:57;;;;;;;1999.90;999.90;;;;;;;;;;5137776;27;20507;-84
2024/02/06 01:27:25;;;;;;;1999.90;999.90;;;;;;;;;;5135453;27;20043;-84
2024/02/06 01:29:51;;;;;;;1999.90;999.90;;;;;;;;;;5134690;27;20053;-84
2024/02/06 01:32:19;;;;;;;1999.90;999.90;;;;;;;;;;5136512;27;20047;-84
2024/02/06 01:34:48;;;;;;;1999.90;999.90;;;;;;;;;;5141391;27;20084;-85
2024/02/06 01:37:16;;;;;;;1999.90;999.90;;;;;;;;;;5131154;27;20120;-84
2024/02/06 01:39:42;;;;;;;1999.90;999.90;;;;;;;;;;5132616;27;20158;-84
2024/02/06 01:42:09;;;;;;;1999.90;999.90;;;;;;;;;;5120491;27;20058;-84
2024/02/06 01:44:36;;;;;;;1999.90;999.90;;;;;;;;;;5141970;27;20061;-84
2024/02/06 01:47:03;;;;;;;1999.90;999.90;;;;;;;;;;5135878;27;20471;-85
2024/02/06 01:49:30;;;;;;;1999.90;999.90;;;;;;;;;;5137136;27;20576;-84
2024/02/06 01:51:58;;;;;;;1999.90;999.90;;;;;;;;;;5133864;27;20058;-85
2024/02/06 01:54:25;;;;;;;1999.90;999.90;;;;;;;;;;5114977;27;20051;-84
2024/02/06 01:56:53;;;;;;;1999.90;999.90;;;;;;;;;;5132666;27;20151;-85
2024/02/06 01:59:21;;;;;;;1999.90;999.90;;;;;;;;;;5121238;27;20099;-84
2024/02/06 02:01:48;;;;;;;1999.90;999.90;;;;;;;;;;5139074;27;20055;-84
2024/02/06 02:04:16;;;;;;;1999.90;999.90;;;;;;;;;;5134860;27;20129;-84
2024/02/06 02:06:43;;;;;;;1999.90;999.90;;;;;;;;;;5137709;27;20047;-84
2024/02/06 02:09:12;;;;;;;1999.90;999.90;;;;;;;;;;5115717;27;20050;-82
2024/02/06 02:11:38;;;;;;;1999.90;999.90;;;;;;;;;;5116967;27;20111;-83
2024/02/06 02:14:05;;;;;;;1999.90;999.90;;;;;;;;;;5132379;27;20051;-83
2024/02/06 02:16:32;;;;;;;1999.90;999.90;;;;;;;;;;5132088;27;20526;-82
2024/02/06 02:18:59;;;;;;;1999.90;999.90;;;;;;;;;;5131406;27;20039;-82
2024/02/06 02:21:29;;;;;;;1999.90;999.90;;;;;;;;;;5137519;27;20051;-83
2024/02/06 02:23:56;;;;;;;1999.90;999.90;;;;;;;;;;5137592;27;20480;-83
2024/02/06 02:26:23;;;;;;;1999.90;999.90;;;;;;;;;;5131586;27;20126;-82
2024/02/06 02:28:50;;;;;;;1999.90;999.90;;;;;;;;;;5132874;27;20057;-84
2024/02/06 02:31:18;;;;;;;1999.90;999.90;;;;;;;;;;5117644;27;20528;-85
2024/02/06 02:33:44;;;;;;;1999.90;999.90;;;;;;;;;;5135179;27;20039;-84
2024/02/06 02:36:11;;;;;;;1999.90;999.90;;;;;;;;;;5119604;27;20539;-84
2024/02/06 02:38:43;;;;;;;1999.90;999.90;;;;;;;;;;5121434;27;20051;-85
2024/02/06 02:41:10;;;;;;;1999.90;999.90;;;;;;;;;;5134651;27;20059;-85
2024/02/06 02:43:38;;;;;;;1999.90;999.90;;;;;;;;;;5127177;27;20055;-84
2024/02/06 02:46:05;;;;;;;1999.90;999.90;;;;;;;;;;5118042;27;20054;-85
2024/02/06 02:48:32;;;;;;;1999.90;999.90;;;;;;;;;;5135335;27;20056;-84
2024/02/06 02:50:59;;;;;;;1999.90;999.90;;;;;;;;;;5134000;27;20051;-85
2024/02/06 02:53:25;;;;;;;1999.90;999.90;;;;;;;;;;5116405;27;20047;-85
2024/02/06 02:55:58;;;;;;;1999.90;999.90;;;;;;;;;;5131427;27;20044;-84
2024/02/06 02:58:25;;;;;;;1999.90;999.90;;;;;;;;;;5133362;27;20054;-85
2024/02/06 03:00:51;;;;;;;1999.90;999.90;;;;;;;;;;5135849;27;20538;-85
2024/02/06 03:03:18;;;;;;;1999.90;999.90;;;;;;;;;;5115755;27;20043;-83
2024/02/06 03:05:45;;;;;;;1999.90;999.90;;;;;;;;;;5134753;27;20051;-85
2024/02/06 03:08:12;;;;;;;1999.90;999.90;;;;;;;;;;5119653;27;20408;-84
2024/02/06 03:10:39;;;;;;;1999.90;999.90;;;;;;;;;;5134349;27;20051;-84
2024/02/06 03:13:07;;;;;;;1999.90;999.90;;;;;;;;;;5134264;27;20045;-85
2024/02/06 03:15:34;;;;;;;1999.90;999.90;;;;;;;;;;5116521;27;20054;-83
2024/02/06 03:18:00;;;;;;;1999.90;999.90;;;;;;;;;;5134451;27;20058;-84
2024/02/06 03:20:27;;;;;;;1999.90;999.90;;;;;;;;;;5133813;27;20479;-84
2024/02/06 03:22:54;;;;;;;1999.90;999.90;;;;;;;;;;5113197;27;20051;-83
2024/02/06 03:25:22;;;;;;;1999.90;999.90;;;;;;;;;;5121647;27;20058;-84
2024/02/06 03:27:49;;;;;;;1999.90;999.90;;;;;;;;;;5130079;27;20492;-85
2024/02/06 03:30:18;;;;;;;1999.90;999.90;;;;;;;;;;5116273;27;20050;-84
2024/02/06 03:32:47;;;;;;;1999.90;999.90;;;;;;;;;;5127849;27;20045;-83
2024/02/06 03:35:14;;;;;;;1999.90;999.90;;;;;;;;;;5133413;27;20045;-84
2024/02/06 03:37:40;;;;;;;1999.90;999.90;;;;;;;;;;5128274;27;20054;-84
2024/02/06 03:40:08;;;;;;;1999.90;999.90;;;;;;;;;;5129080;27;20039;-83
2024/02/06 03:42:35;;;;;;;1999.90;999.90;;;;;;;;;;5114275;27;20142;-83
2024/02/06 03:45:02;;;;;;;1999.90;999.90;;;;;;;;;;5132897;27;20050;-82
2024/02/06 03:47:30;;;;;;;1999.90;999.90;;;;;;;;;;5115411;27;20051;-83
2024/02/06 03:49:56;;;;;;;1999.90;999.90;;;;;;;;;;5130053;27;20051;-83
2024/02/06 03:52:23;;;;;;;1999.90;999.90;;;;;;;;;;5133577;27;20501;-83
2024/02/06 03:54:50;;;;;;;1999.90;999.90;;;;;;;;;;5117912;27;20493;-82
2024/02/06 03:57:17;;;;;;;1999.90;999.90;;;;;;;;;;5135643;27;20042;-83
2024/02/06 03:59:44;;;;;;;1999.90;999.90;;;;;;;;;;5139752;27;20049;-82
2024/02/06 04:02:11;;;;;;;1999.90;999.90;;;;;;;;;;5141430;27;20049;-82
2024/02/06 04:04:39;;;;;;;1999.90;999.90;;;;;;;;;;5138436;27;20039;-83
2024/02/06 04:07:06;;;;;;;1999.90;999.90;;;;;;;;;;5132552;27;20142;-83
2024/02/06 04:09:32;;;;;;;1999.90;999.90;;;;;;;;;;5129907;27;20649;-83
2024/02/06 04:11:59;;;;;;;1999.90;999.90;;;;;;;;;;5121189;27;20061;-83
2024/02/06 04:14:27;;;;;;;1999.90;999.90;;;;;;;;;;5117682;27;20047;-83
2024/02/06 04:16:54;;;;;;;1999.90;999.90;;;;;;;;;;5100597;27;20046;-83
2024/02/06 04:19:23;;;;;;;1999.90;999.90;;;;;;;;;;5136879;27;20046;-84
2024/02/06 04:21:51;;;;;;;1999.90;999.90;;;;;;;;;;5133250;27;20054;-84
2024/02/06 04:24:18;;;;;;;1999.90;999.90;;;;;;;;;;5116395;27;20045;-83
2024/02/06 04:26:46;;;;;;;1999.90;999.90;;;;;;;;;;5119365;27;20064;-84
2024/02/06 04:29:13;;;;;;;1999.90;999.90;;;;;;;;;;5133749;27;20047;-84
2024/02/06 04:31:40;;;;;;;1999.90;999.90;;;;;;;;;;5140684;27;20078;-84
2024/02/06 04:34:07;;;;;;;1999.90;999.90;;;;;;;;;;5122852;27;20438;-83
2024/02/06 04:36:34;;;;;;;1999.90;999.90;;;;;;;;;;5136067;27;20051;-84
2024/02/06 04:39:04;;;;;;;1999.90;999.90;;;;;;;;;;5139183;27;20043;-84
2024/02/06 04:41:30;;;;;;;1999.90;999.90;;;;;;;;;;5119582;27;20046;-84
2024/02/06 04:43:57;;;;;;;1999.90;999.90;;;;;;;;;;5135863;27;20068;-87
2024/02/06 04:46:27;;;;;;;1999.90;999.90;;;;;;;;;;5116159;27;20059;-84
2024/02/06 04:48:54;;;;;;;1999.90;999.90;;;;;;;;;;5115403;27;20063;-83
2024/02/06 04:51:21;;;;;;;1999.90;999.90;;;;;;;;;;5134503;27;20047;-83
2024/02/06 04:53:54;;;;;;;1999.90;999.90;;;;;;;;;;5120317;27;20043;-84
2024/02/06 04:56:22;;;;;;;1999.90;999.90;;;;;;;;;;5123550;27;20579;-84
2024/02/06 04:58:50;;;;;;;1999.90;999.90;;;;;;;;;;5115190;27;20076;-82
2024/02/06 05:01:18;;;;;;;1999.90;999.90;;;;;;;;;;5121372;27;20054;-83
2024/02/06 05:03:45;;;;;;;1999.90;999.90;;;;;;;;;;5121621;27;20055;-83
2024/02/06 05:06:12;;;;;;;1999.90;999.90;;;;;;;;;;5134678;27;20504;-84
2024/02/06 05:08:39;;;;;;;1999.90;999.90;;;;;;;;;;5138858;27;20047;-83
2024/02/06 05:11:06;;;;;;;1999.90;999.90;;;;;;;;;;5140648;27;20050;-85
2024/02/06 05:13:37;;;;;;;1999.90;999.90;;;;;;;;;;5137296;27;20050;-85
2024/02/06 05:16:05;;;;;;;1999.90;999.90;;;;;;;;;;5118981;27;20431;-85
2024/02/06 05:18:33;;;;;;;1999.90;999.90;;;;;;;;;;5126098;27;20047;-85
2024/02/06 05:21:01;;;;;;;1999.90;999.90;;;;;;;;;;5118781;27;20527;-84
2024/02/06 05:23:31;;;;;;;1999.90;999.90;;;;;;;;;;5117982;27;20130;-85
2024/02/06 05:25:57;;;;;;;1999.90;999.90;;;;;;;;;;5119268;27;20085;-86
2024/02/06 05:28:24;;;;;;;1999.90;999.90;;;;;;;;;;5139617;27;20061;-86
2024/02/06 05:30:53;;;;;;;1999.90;999.90;;;;;;;;;;5135130;27;20055;-85
2024/02/06 05:33:20;;;;;;;1999.90;999.90;;;;;;;;;;5119422;27;20051;-86
2024/02/06 05:35:49;;;;;;;1999.90;999.90;;;;;;;;;;5136342;27;20051;-85
2024/02/06 05:38:16;;;;;;;1999.90;999.90;;;;;;;;;;5139576;27;20047;-86
2024/02/06 05:40:43;;;;;;;1999.90;999.90;;;;;;;;;;5135516;27;20043;-86
2024/02/06 05:43:10;;;;;;;1999.90;999.90;;;;;;;;;;5137114;27;20385;-86
2024/02/06 05:45:39;;;;;;;1999.90;999.90;;;;;;;;;;5138377;27;20047;-85
2024/02/06 05:48:09;;;;;;;1999.90;999.90;;;;;;;;;;5117391;27;20414;-87
2024/02/06 05:50:36;;;;;;;1999.90;999.90;;;;;;;;;;5121338;27;20047;-86
2024/02/06 05:53:03;;;;;;;1999.90;999.90;;;;;;;;;;5139269;27;20051;-87
2024/02/06 05:55:30;;;;;;;1999.90;999.90;;;;;;;;;;5138870;27;20057;-86
2024/02/06 05:57:56;;;;;;;1999.90;999.90;;;;;;;;;;5119278;27;20399;-85
2024/02/06 06:00:26;;;;;;;1999.90;999.90;;;;;;;;;;5135862;27;20047;-86
2024/02/06 06:02:53;;;;;;;1999.90;999.90;;;;;;;;;;5115402;27;20393;-86
2024/02/06 06:05:22;;;;;;;1999.90;999.90;;;;;;;;;;5116582;27;20054;-87
2024/02/06 06:07:49;;;;;;;1999.90;999.90;;;;;;;;;;5125897;27;20054;-87
2024/02/06 06:10:17;;;;;;;1999.90;999.90;;;;;;;;;;5139772;27;20050;-86
2024/02/06 06:12:45;;;;;;;1999.90;999.90;;;;;;;;;;5119837;27;20050;-87
2024/02/06 06:15:12;;;;;;;1999.90;999.90;;;;;;;;;;5142421;27;20043;-86
2024/02/06 06:17:38;;;;;;;1999.90;999.90;;;;;;;;;;5118522;27;20054;-86
2024/02/06 06:20:06;;;;;;;1999.90;999.90;;;;;;;;;;5139892;27;20066;-86
2024/02/06 06:22:35;;;;;;;1999.90;999.90;;;;;;;;;;5132697;27;20058;-87
2024/02/06 06:25:02;;;;;;;1999.90;999.90;;;;;;;;;;5135964;27;20099;-86
2024/02/06 06:27:30;;;;;;;1999.90;999.90;;;;;;;;;;5137242;27;20106;-86
2024/02/06 06:29:56;;;;;;;1999.90;999.90;;;;;;;;;;5140635;27;20059;-86
2024/02/06 06:32:23;;;;;;;1999.90;999.90;;;;;;;;;;5115451;27;20058;-86
2024/02/06 06:34:50;;;;;;;1999.90;999.90;;;;;;;;;;5129440;27;20049;-86
2024/02/06 06:37:18;;;;;;;1999.90;999.90;;;;;;;;;;5135221;27;20057;-86
2024/02/06 06:39:48;;;;;;;1999.90;999.90;;;;;;;;;;5135153;27;20081;-85
2024/02/06 06:42:15;;;;;;;1999.90;999.90;;;;;;;;;;5114240;27;20056;-86
2024/02/06 06:44:41;;;;;;;1999.90;999.90;;;;;;;;;;5131948;27;20046;-86
2024/02/06 06:47:11;;;;;;;1999.90;999.90;;;;;;;;;;5134137;27;20043;-87
2024/02/06 06:49:38;;;;;;;1999.90;999.90;;;;;;;;;;5134609;27;20074;-86
2024/02/06 06:52:07;;;;;;;1999.90;999.90;;;;;;;;;;5140372;27;20042;-85
2024/02/06 06:54:35;;;;;;;1999.90;999.90;;;;;;;;;;5113155;27;20092;-86
2024/02/06 06:57:04;;;;;;;1999.90;999.90;;;;;;;;;;5138192;27;20043;-87
2024/02/06 06:59:32;;;;;;;1999.90;999.90;;;;;;;;;;5134695;27;20485;-86
2024/02/06 07:02:00;;;;;;;1999.90;999.90;;;;;;;;;;5133724;27;20047;-86
2024/02/06 07:04:27;;;;;;;1999.90;999.90;;;;;;;;;;5117235;27;20051;-86
2024/02/06 07:06:54;;;;;;;1999.90;999.90;;;;;;;;;;5136293;27;20061;-86
2024/02/06 07:09:22;;;;;;;1999.90;999.90;;;;;;;;;;5131434;27;20409;-84
2024/02/06 07:11:49;;;;;;;1999.90;999.90;;;;;;;;;;5106753;27;20516;-84
2024/02/06 07:14:18;;;;;;;1999.90;999.90;;;;;;;;;;5128855;27;20035;-84
2024/02/06 07:16:44;;;;;;;1999.90;999.90;;;;;;;;;;5137215;27;20516;-83
2024/02/06 07:19:12;;;;;;;1999.90;999.90;;;;;;;;;;5134530;27;20049;-83
2024/02/06 07:21:39;;;;;;;1999.90;999.90;;;;;;;;;;5131233;27;20058;-84
2024/02/06 07:24:06;;;;;;;1999.90;999.90;;;;;;;;;;5113065;27;20053;-84
2024/02/06 07:26:32;;;;;;;1999.90;999.90;;;;;;;;;;5133225;27;20552;-84
2024/02/06 07:28:59;;;;;;;1999.90;999.90;;;;;;;;;;5116551;27;20051;-84
2024/02/06 07:31:27;;;;;;;1999.90;999.90;;;;;;;;;;5116387;27;20069;-85
2024/02/06 07:33:54;;;;;;;1999.90;999.90;;;;;;;;;;5113841;27;20053;-83
2024/02/06 07:36:21;;;;;;;1999.90;999.90;;;;;;;;;;5134100;27;20051;-84
2024/02/06 07:38:47;;;;;;;1999.90;999.90;;;;;;;;;;5138494;27;20053;-84
2024/02/06 07:41:14;;;;;;;1999.90;999.90;;;;;;;;;;5138849;27;20042;-84
2024/02/06 07:43:42;;;;;;;1999.90;999.90;;;;;;;;;;5136257;27;20053;-84
2024/02/06 07:46:11;;;;;;;1999.90;999.90;;;;;;;;;;5133227;27;20398;-84
2024/02/06 07:48:40;;;;;;;1999.90;999.90;;;;;;;;;;5129673;27;20482;-84
2024/02/06 07:51:06;;;;;;;1999.90;999.90;;;;;;;;;;5114293;27;20050;-84
2024/02/06 07:53:33;;;;;;;1999.90;999.90;;;;;;;;;;5130745;27;20052;-84
2024/02/06 07:56:03;;;;;;;1999.90;999.90;;;;;;;;;;5127533;27;20054;-84
2024/02/06 07:58:30;;;;;;;1999.90;999.90;;;;;;;;;;5131949;27;20047;-86
2024/02/06 08:00:58;;;;;;;1999.90;999.90;;;;;;;;;;5131786;27;20043;-85
2024/02/06 08:03:26;;;;;;;1999.90;999.90;;;;;;;;;;5131592;27;20144;-85
2024/02/06 08:05:55;;;;;;;1999.90;999.90;;;;;;;;;;5133160;27;20043;-85
2024/02/06 08:08:24;;;;;;;1999.90;999.90;;;;;;;;;;5117134;27;20065;-85
2024/02/06 08:10:51;;;;;;;1999.90;999.90;;;;;;;;;;5115888;27;20059;-85
2024/02/06 08:13:17;;;;;;;1999.90;999.90;;;;;;;;;;5120108;27;20039;-84
2024/02/06 08:15:46;;;;;;;1999.90;999.90;;;;;;;;;;5135414;27;20057;-85
2024/02/06 08:18:13;;;;;;;1999.90;999.90;;;;;;;;;;5098405;27;20046;-85
2024/02/06 08:20:41;;;;;;;1999.90;999.90;;;;;;;;;;5119707;27;20142;-84
2024/02/06 08:23:10;;;;;;;1999.90;999.90;;;;;;;;;;5129127;27;20051;-83
2024/02/06 08:25:36;;;;;;;1999.90;999.90;;;;;;;;;;5110392;27;20051;-84
2024/02/06 08:28:05;;;;;;;1999.90;999.90;;;;;;;;;;5137782;27;20058;-83
2024/02/06 08:30:32;;;;;;;1999.90;999.90;;;;;;;;;;5134515;27;20500;-84
2024/02/06 08:32:59;;;;;;;1999.90;999.90;;;;;;;;;;5118338;27;20403;-84
2024/02/06 08:35:26;;;;;;;1999.90;999.90;;;;;;;;;;5131779;27;20061;-84
2024/02/06 08:37:53;;;;;;;1999.90;999.90;;;;;;;;;;5112543;27;20054;-84
2024/02/06 08:40:22;;;;;;;1999.90;999.90;;;;;;;;;;5117279;27;20055;-83
2024/02/06 08:42:49;;;;;;;1999.90;999.90;;;;;;;;;;5116647;27;20074;-83
2024/02/06 08:45:16;;;;;;;1999.90;999.90;;;;;;;;;;5133465;27;20475;-83
2024/02/06 08:47:43;;;;;;;1999.90;999.90;;;;;;;;;;5118853;27;20540;-84
2024/02/06 08:50:11;;;;;;;1999.90;999.90;;;;;;;;;;5116845;27;20049;-84
2024/02/06 08:52:38;;;;;;;1999.90;999.90;;;;;;;;;;5130906;27;20055;-84
2024/02/06 08:55:06;;;;;;;1999.90;999.90;;;;;;;;;;5134058;27;20210;-83
2024/02/06 08:57:35;;;;;;;1999.90;999.90;;;;;;;;;;5133756;27;20120;-84
2024/02/06 09:00:02;;;;;;;1999.90;999.90;;;;;;;;;;5137596;27;20053;-83
2024/02/06 09:02:30;;;;;;;1999.90;999.90;;;;;;;;;;5130703;27;20507;-83
2024/02/06 09:04:56;;;;;;;1999.90;999.90;;;;;;;;;;5115062;27;20577;-83
2024/02/06 09:07:25;;;;;;;1999.90;999.90;;;;;;;;;;5136228;27;20047;-83
2024/02/06 09:09:55;;;;;;;1999.90;999.90;;;;;;;;;;5124542;27;20516;-85
2024/02/06 09:12:22;;;;;;;1999.90;999.90;;;;;;;;;;5124644;27;20062;-85
2024/02/06 09:14:50;;;;;;;1999.90;999.90;;;;;;;;;;5140476;27;20047;-86
2024/02/06 09:17:21;;;;;;;1999.90;999.90;;;;;;;;;;5121754;27;20047;-85
2024/02/06 09:19:47;;;;;;;1999.90;999.90;;;;;;;;;;5134778;27;20174;-84
2024/02/06 09:22:14;;;;;;;1999.90;999.90;;;;;;;;;;5140979;27;20047;-86
2024/02/06 09:24:41;;;;;;;1999.90;999.90;;;;;;;;;;5137302;27;20047;-86
2024/02/06 09:27:07;;;;;;;1999.90;999.90;;;;;;;;;;5116159;27;20051;-86
2024/02/06 09:29:34;;;;;;;1999.90;999.90;;;;;;;;;;5140287;27;20134;-86
2024/02/06 09:32:03;;;;;;;1999.90;999.90;;;;;;;;;;5124284;27;20053;-87
2024/02/06 09:34:29;;;;;;;1999.90;999.90;;;;;;;;;;5135820;27;20454;-87
2024/02/06 09:36:57;;;;;;;1999.90;999.90;;;;;;;;;;5118864;27;20481;-85
2024/02/06 09:39:23;;;;;;;1999.90;999.90;;;;;;;;;;5136322;27;20059;-86
2024/02/06 09:41:50;;;;;;;1999.90;999.90;;;;;;;;;;5136789;27;20046;-86
2024/02/06 09:44:17;;;;;;;1999.90;999.90;;;;;;;;;;5126937;27;20047;-85
2024/02/06 09:46:45;;;;;;;1999.90;999.90;;;;;;;;;;5135821;27;20043;-89
2024/02/06 09:49:14;;;;;;;1999.90;999.90;;;;;;;;;;5138888;27;20058;-86
2024/02/06 09:51:41;;;;;;;1999.90;999.90;;;;;;;;;;5135752;27;20424;-86
2024/02/06 09:54:09;;;;;;;1999.90;999.90;;;;;;;;;;5138837;27;20096;-86
2024/02/06 09:56:36;;;;;;;1999.90;999.90;;;;;;;;;;5139331;27;20063;-86
2024/02/06 09:59:05;;;;;;;1999.90;999.90;;;;;;;;;;5138055;27;20049;-86
2024/02/06 10:01:34;;;;;;;1999.90;999.90;;;;;;;;;;5130961;27;20062;-86
2024/02/06 10:04:00;;;;;;;1999.90;999.90;;;;;;;;;;5115201;27;20038;-85
2024/02/06 10:06:30;;;;;;;1999.90;999.90;;;;;;;;;;5119504;27;20623;-85
2024/02/06 10:08:57;;;;;;;1999.90;999.90;;;;;;;;;;5134433;27;20138;-85
2024/02/06 10:11:25;;;;;;;1999.90;999.90;;;;;;;;;;5135151;27;20054;-88
2024/02/06 10:13:52;;;;;;;1999.90;999.90;;;;;;;;;;5135051;27;20057;-86
2024/02/06 10:16:19;;;;;;;1999.90;999.90;;;;;;;;;;5118988;27;20425;-86
2024/02/06 10:18:53;;;;;;;1999.90;999.90;;;;;;;;;;5120769;27;20057;-86
2024/02/06 10:21:19;;;;;;;1999.90;999.90;;;;;;;;;;5115208;27;20082;-85
2024/02/06 10:23:49;;;;;;;1999.90;999.90;;;;;;;;;;5131799;27;20046;-85
2024/02/06 10:26:19;;;;;;;1999.90;999.90;;;;;;;;;;5145373;27;20414;-86
2024/02/06 10:28:53;;;;;;;1999.90;999.90;;;;;;;;;;5142267;27;20092;-85
2024/02/06 10:31:19;;;;;;;1999.90;999.90;;;;;;;;;;5140341;27;20039;-86
2024/02/06 10:33:46;;;;;;;1999.90;999.90;;;;;;;;;;5117393;27;20061;-86
2024/02/06 10:36:14;;;;;;;1999.90;999.90;;;;;;;;;;5112915;27;20047;-87
2024/02/06 10:38:42;;;;;;;1999.90;999.90;;;;;;;;;;5137919;27;20092;-85
2024/02/06 10:41:11;;;;;;;1999.90;999.90;;;;;;;;;;5115432;27;20065;-85
2024/02/06 10:43:38;;;;;;;1999.90;999.90;;;;;;;;;;5141745;27;20053;-85
2024/02/06 10:46:05;;;;;;;1999.90;999.90;;;;;;;;;;5134943;27;20045;-85
2024/02/06 10:48:32;;;;;;;1999.90;999.90;;;;;;;;;;5139734;27;20487;-86
2024/02/06 10:51:01;;;;;;;1999.90;999.90;;;;;;;;;;5128235;27;20048;-85
2024/02/06 10:53:29;;;;;;;1999.90;999.90;;;;;;;;;;5132700;27;20409;-85
2024/02/06 10:56:00;;;;;;;1999.90;999.90;;;;;;;;;;5134694;27;20966;-85
2024/02/06 10:58:39;;;;;;;1999.90;999.90;;;;;;;;;;5141538;27;20504;-85
2024/02/06 11:01:08;;;;;;;1999.90;999.90;;;;;;;;;;5132952;27;20138;-86
2024/02/06 11:03:41;;;;;;;1999.90;999.90;;;;;;;;;;5116588;27;20051;-87
2024/02/06 11:06:13;;;;;;;1999.90;999.90;;;;;;;;;;5115977;27;20066;-86
2024/02/06 11:08:40;;;;;;;1999.90;999.90;;;;;;;;;;5134051;27;20440;-86
2024/02/06 11:11:08;;;;;;;1999.90;999.90;;;;;;;;;;5113342;27;20047;-86
2024/02/06 11:13:40;;;;;;;1999.90;999.90;;;;;;;;;;5136606;27;20055;-86
2024/02/06 11:16:09;;;;;;;1999.90;999.90;;;;;;;;;;5116718;27;20047;-85
2024/02/06 11:18:39;;;;;;;1999.90;999.90;;;;;;;;;;5133540;27;20055;-87
2024/02/06 11:21:09;;;;;;;1999.90;999.90;;;;;;;;;;5133679;27;20074;-86
2024/02/06 11:23:39;;;;;;;1999.90;999.90;;;;;;;;;;5134339;27;20138;-87
2024/02/06 11:26:07;;;;;;;1999.90;999.90;;;;;;;;;;5136322;27;20047;-87
2024/02/06 11:28:34;;;;;;;1999.90;999.90;;;;;;;;;;5131955;27;20083;-83
2024/02/06 11:31:03;;;;;;;1999.90;999.90;;;;;;;;;;5131920;27;20060;-83
2024/02/06 11:33:30;;;;;;;1999.90;999.90;;;;;;;;;;5135071;27;20393;-83
2024/02/06 11:36:08;;;;;;;1999.90;999.90;;;;;;;;;;5137840;27;20047;-84
2024/02/06 11:38:35;;;;;;;1999.90;999.90;;;;;;;;;;5123106;27;20047;-83
2024/02/06 11:41:10;;;;;;;1999.90;999.90;;;;;;;;;;5128927;27;20058;-83
2024/02/06 11:43:37;;;;;;;1999.90;999.90;;;;;;;;;;5134585;27;20138;-83
2024/02/06 11:46:06;;;;;;;1999.90;999.90;;;;;;;;;;5135298;27;20548;-83
2024/02/06 11:48:33;;;;;;;1999.90;999.90;;;;;;;;;;5131181;27;20054;-85
2024/02/06 11:51:00;;;;;;;1999.90;999.90;;;;;;;;;;5135584;27;20051;-86
2024/02/06 11:53:28;;;;;;;1999.90;999.90;;;;;;;;;;5135862;27;20054;-85
2024/02/06 11:55:58;;;;;;;1999.90;999.90;;;;;;;;;;5136152;27;20039;-85
2024/02/06 11:58:25;;;;;;;1999.90;999.90;;;;;;;;;;5134094;27;20088;-86
2024/02/06 12:00:53;;;;;;;1999.90;999.90;;;;;;;;;;5115578;28;20055;-87
2024/02/06 12:03:21;;;;;;;1999.90;999.90;;;;;;;;;;5131437;27;20043;-85
2024/02/06 12:05:49;;;;;;;1999.90;999.90;;;;;;;;;;5117442;27;20048;-86
2024/02/06 12:08:19;;;;;;;1999.90;999.90;;;;;;;;;;5135475;27;20055;-85
2024/02/06 12:10:46;;;;;;;1999.90;999.90;;;;;;;;;;5136218;27;20042;-86
2024/02/06 12:13:14;;;;;;;1999.90;999.90;;;;;;;;;;5118652;27;20035;-86
2024/02/06 12:15:41;;;;;;;1999.90;999.90;;;;;;;;;;5138552;27;20502;-87
2024/02/06 12:18:10;;;;;;;1999.90;999.90;;;;;;;;;;5137653;27;20047;-86
2024/02/06 12:20:40;;;;;;;1999.90;999.90;;;;;;;;;;5136840;27;20058;-85
2024/02/06 12:23:07;;;;;;;1999.90;999.90;;;;;;;;;;5115729;27;20055;-85
2024/02/06 12:25:37;;;;;;;1999.90;999.90;;;;;;;;;;5131205;27;20062;-85
2024/02/06 12:28:08;;;;;;;1999.90;999.90;;;;;;;;;;5100736;27;20054;-86
2024/02/06 12:30:35;;;;;;;1999.90;999.90;;;;;;;;;;5139506;27;20051;-85
2024/02/06 12:33:02;;;;;;;1999.90;999.90;;;;;;;;;;5137767;27;20053;-86
2024/02/06 12:35:30;;;;;;;1999.90;999.90;;;;;;;;;;5103189;27;20799;-86
2024/02/06 12:37:59;;;;;;;1999.90;999.90;;;;;;;;;;5136900;27;20058;-86
2024/02/06 12:40:27;;;;;;;1999.90;999.90;;;;;;;;;;5126293;27;20142;-85
2024/02/06 12:42:54;;;;;;;1999.90;999.90;;;;;;;;;;5136961;27;20095;-86
2024/02/06 12:45:21;;;;;;;1999.90;999.90;;;;;;;;;;5122929;27;20545;-86
2024/02/06 12:47:49;;;;;;;1999.90;999.90;;;;;;;;;;5141160;27;20066;-87
2024/02/06 12:50:16;;;;;;;1999.90;999.90;;;;;;;;;;5136096;27;20055;-87
2024/02/06 12:52:42;;;;;;;1999.90;999.90;;;;;;;;;;5117259;27;20058;-86
2024/02/06 12:55:13;;;;;;;1999.90;999.90;;;;;;;;;;5135007;27;20043;-85
2024/02/06 12:57:41;;;;;;;1999.90;999.90;;;;;;;;;;5137825;27;20051;-85
2024/02/06 13:00:11;;;;;;;1999.90;999.90;;;;;;;;;;5118483;27;20054;-85
2024/02/06 13:02:38;;;;;;;1999.90;999.90;;;;;;;;;;5117782;27;20051;-86
2024/02/06 13:05:09;;;;;;;1999.90;999.90;;;;;;;;;;5114616;27;20104;-87
2024/02/06 13:07:36;;;;;;;1999.90;999.90;;;;;;;;;;5102671;27;20050;-86
2024/02/06 13:10:05;;;;;;;1999.90;999.90;;;;;;;;;;5118860;27;20035;-85
2024/02/06 13:12:34;;;;;;;1999.90;999.90;;;;;;;;;;5138543;27;20073;-87
2024/02/06 13:15:03;;;;;;;1999.90;999.90;;;;;;;;;;5138355;27;20051;-85
2024/02/06 13:17:32;;;;;;;1999.90;999.90;;;;;;;;;;5134215;27;20043;-87
2024/02/06 13:20:08;;;;;;;1999.90;999.90;;;;;;;;;;5134459;27;20059;-85
2024/02/06 13:22:35;;;;;;;1999.90;999.90;;;;;;;;;;5141532;27;20050;-86
2024/02/06 13:25:02;;;;;;;1999.90;999.90;;;;;;;;;;5136607;27;20059;-86
2024/02/06 13:27:29;;;;;;;1999.90;999.90;;;;;;;;;;5133925;27;20082;-86
2024/02/06 13:29:57;;;;;;;1999.90;999.90;;;;;;;;;;5117707;27;20047;-85
2024/02/06 13:32:24;;;;;;;1999.90;999.90;;;;;;;;;;5116191;27;20439;-85
2024/02/06 13:34:52;;;;;;;1999.90;999.90;;;;;;;;;;5120566;27;20051;-86
2024/02/06 13:37:19;;;;;;;1999.90;999.90;;;;;;;;;;5132840;27;20039;-86
2024/02/06 13:39:47;;;;;;;1999.90;999.90;;;;;;;;;;5110256;27;20104;-86
2024/02/06 13:42:14;;;;;;;1999.90;999.90;;;;;;;;;;5131005;27;20047;-87
2024/02/06 13:44:41;;;;;;;1999.90;999.90;;;;;;;;;;5139820;27;20073;-86